sensor_id;sensor_type;location;lat;lon;timestamp;temperature;humidity
36652;DHT22;53334;51.976;20.144;2024-03-08T00:00:34;26.30;40.70
36652;DHT22;53334;51.976;20.144;2024-03-08T00:03:07;26.30;40.70
36652;DHT22;53334;51.976;20.144;2024-03-08T00:05:41;26.30;40.70
36652;DHT22;53334;51.976;20.144;2024-03-08T00:08:16;26.30;40.80
36652;DHT22;53334;51.976;20.144;2024-03-08T00:10:49;26.30;40.70
36652;DHT22;53334;51.976;20.144;2024-03-08T00:13:22;26.30;40.80
36652;DHT22;53334;51.976;20.144;2024-03-08T00:15:57;26.30;40.70
36652;DHT22;53334;51.976;20.144;2024-03-08T00:18:30;26.30;40.70
36652;DHT22;53334;51.976;20.144;2024-03-08T00:21:03;26.30;40.70
36652;DHT22;53334;51.976;20.144;2024-03-08T00:23:37;26.30;40.60
36652;DHT22;53334;51.976;20.144;2024-03-08T00:26:11;26.30;40.70
36652;DHT22;53334;51.976;20.144;2024-03-08T00:28:44;26.30;40.60
36652;DHT22;53334;51.976;20.144;2024-03-08T00:31:17;26.20;40.50
36652;DHT22;53334;51.976;20.144;2024-03-08T00:33:50;26.30;40.60
36652;DHT22;53334;51.976;20.144;2024-03-08T00:36:24;26.30;40.60
36652;DHT22;53334;51.976;20.144;2024-03-08T00:38:59;26.30;40.60
36652;DHT22;53334;51.976;20.144;2024-03-08T00:41:32;26.30;40.60
36652;DHT22;53334;51.976;20.144;2024-03-08T00:44:05;26.30;40.60
36652;DHT22;53334;51.976;20.144;2024-03-08T00:46:38;26.30;40.60
36652;DHT22;53334;51.976;20.144;2024-03-08T00:49:12;26.30;40.60
36652;DHT22;53334;51.976;20.144;2024-03-08T00:51:45;26.30;40.50
36652;DHT22;53334;51.976;20.144;2024-03-08T00:54:19;26.30;40.50
36652;DHT22;53334;51.976;20.144;2024-03-08T00:56:52;26.30;40.50
36652;DHT22;53334;51.976;20.144;2024-03-08T00:59:25;26.30;40.50
36652;DHT22;53334;51.976;20.144;2024-03-08T01:01:59;26.30;40.50
36652;DHT22;53334;51.976;20.144;2024-03-08T01:04:32;26.30;40.50
36652;DHT22;53334;51.976;20.144;2024-03-08T01:07:05;26.30;40.50
36652;DHT22;53334;51.976;20.144;2024-03-08T01:09:39;26.30;40.40
36652;DHT22;53334;51.976;20.144;2024-03-08T01:12:13;26.30;40.40
36652;DHT22;53334;51.976;20.144;2024-03-08T01:14:46;26.30;40.40
36652;DHT22;53334;51.976;20.144;2024-03-08T01:17:19;26.30;40.40
36652;DHT22;53334;51.976;20.144;2024-03-08T01:19:53;26.20;40.30
36652;DHT22;53334;51.976;20.144;2024-03-08T01:22:26;26.30;40.40
36652;DHT22;53334;51.976;20.144;2024-03-08T01:25:03;26.30;40.40
36652;DHT22;53334;51.976;20.144;2024-03-08T01:27:36;26.30;40.40
36652;DHT22;53334;51.976;20.144;2024-03-08T01:30:10;26.30;40.40
36652;DHT22;53334;51.976;20.144;2024-03-08T01:32:44;26.30;40.40
36652;DHT22;53334;51.976;20.144;2024-03-08T01:35:17;26.30;40.30
36652;DHT22;53334;51.976;20.144;2024-03-08T01:37:51;26.20;40.20
36652;DHT22;53334;51.976;20.144;2024-03-08T01:40:25;26.20;40.30
36652;DHT22;53334;51.976;20.144;2024-03-08T01:43:17;26.20;40.20
36652;DHT22;53334;51.976;20.144;2024-03-08T01:45:51;26.20;40.30
36652;DHT22;53334;51.976;20.144;2024-03-08T01:48:24;26.30;40.30
36652;DHT22;53334;51.976;20.144;2024-03-08T01:50:58;26.30;40.20
36652;DHT22;53334;51.976;20.144;2024-03-08T01:53:32;26.30;40.30
36652;DHT22;53334;51.976;20.144;2024-03-08T01:56:07;26.30;40.30
36652;DHT22;53334;51.976;20.144;2024-03-08T01:58:41;26.30;40.30
36652;DHT22;53334;51.976;20.144;2024-03-08T02:01:15;26.20;40.20
36652;DHT22;53334;51.976;20.144;2024-03-08T02:03:49;26.30;40.20
36652;DHT22;53334;51.976;20.144;2024-03-08T02:06:22;26.30;40.20
36652;DHT22;53334;51.976;20.144;2024-03-08T02:08:55;26.20;40.20
36652;DHT22;53334;51.976;20.144;2024-03-08T02:11:30;26.30;40.20
36652;DHT22;53334;51.976;20.144;2024-03-08T02:14:03;26.30;40.20
36652;DHT22;53334;51.976;20.144;2024-03-08T02:16:38;26.30;40.20
36652;DHT22;53334;51.976;20.144;2024-03-08T02:19:11;26.30;40.10
36652;DHT22;53334;51.976;20.144;2024-03-08T02:21:46;26.30;40.10
36652;DHT22;53334;51.976;20.144;2024-03-08T02:24:19;26.30;40.10
36652;DHT22;53334;51.976;20.144;2024-03-08T02:26:53;26.30;40.10
36652;DHT22;53334;51.976;20.144;2024-03-08T02:29:26;26.20;40.00
36652;DHT22;53334;51.976;20.144;2024-03-08T02:32:00;26.20;40.00
36652;DHT22;53334;51.976;20.144;2024-03-08T02:34:34;26.20;40.00
36652;DHT22;53334;51.976;20.144;2024-03-08T02:37:09;26.30;40.00
36652;DHT22;53334;51.976;20.144;2024-03-08T02:39:42;26.30;40.00
36652;DHT22;53334;51.976;20.144;2024-03-08T02:42:15;26.20;39.90
36652;DHT22;53334;51.976;20.144;2024-03-08T02:44:48;26.30;40.00
36652;DHT22;53334;51.976;20.144;2024-03-08T02:47:21;26.30;40.00
36652;DHT22;53334;51.976;20.144;2024-03-08T02:49:58;26.30;40.00
36652;DHT22;53334;51.976;20.144;2024-03-08T02:52:34;26.30;39.90
36652;DHT22;53334;51.976;20.144;2024-03-08T02:55:08;26.30;39.90
36652;DHT22;53334;51.976;20.144;2024-03-08T02:57:44;26.30;39.90
36652;DHT22;53334;51.976;20.144;2024-03-08T03:00:19;26.30;39.90
36652;DHT22;53334;51.976;20.144;2024-03-08T03:02:53;26.30;39.90
36652;DHT22;53334;51.976;20.144;2024-03-08T03:05:26;26.30;39.90
36652;DHT22;53334;51.976;20.144;2024-03-08T03:08:01;26.30;39.90
36652;DHT22;53334;51.976;20.144;2024-03-08T03:10:35;26.30;39.90
36652;DHT22;53334;51.976;20.144;2024-03-08T03:13:09;26.30;39.80
36652;DHT22;53334;51.976;20.144;2024-03-08T03:15:42;26.20;39.80
36652;DHT22;53334;51.976;20.144;2024-03-08T03:18:15;26.20;39.80
36652;DHT22;53334;51.976;20.144;2024-03-08T03:20:50;26.30;39.80
36652;DHT22;53334;51.976;20.144;2024-03-08T03:23:25;26.30;39.80
36652;DHT22;53334;51.976;20.144;2024-03-08T03:25:58;26.30;39.70
36652;DHT22;53334;51.976;20.144;2024-03-08T03:28:32;26.30;39.80
36652;DHT22;53334;51.976;20.144;2024-03-08T03:31:05;26.30;39.80
36652;DHT22;53334;51.976;20.144;2024-03-08T03:33:41;26.30;39.70
36652;DHT22;53334;51.976;20.144;2024-03-08T03:36:15;26.20;39.70
36652;DHT22;53334;51.976;20.144;2024-03-08T03:38:49;26.20;39.60
36652;DHT22;53334;51.976;20.144;2024-03-08T03:41:23;26.30;39.70
36652;DHT22;53334;51.976;20.144;2024-03-08T03:43:57;26.20;39.60
36652;DHT22;53334;51.976;20.144;2024-03-08T03:46:30;26.20;39.60
36652;DHT22;53334;51.976;20.144;2024-03-08T03:49:03;26.20;39.60
36652;DHT22;53334;51.976;20.144;2024-03-08T03:51:36;26.20;39.60
36652;DHT22;53334;51.976;20.144;2024-03-08T03:54:11;26.20;39.60
36652;DHT22;53334;51.976;20.144;2024-03-08T03:56:44;26.20;40.20
36652;DHT22;53334;51.976;20.144;2024-03-08T03:59:18;26.20;39.60
36652;DHT22;53334;51.976;20.144;2024-03-08T04:01:51;26.20;39.50
36652;DHT22;53334;51.976;20.144;2024-03-08T04:04:24;26.20;39.50
36652;DHT22;53334;51.976;20.144;2024-03-08T04:06:57;26.20;39.50
36652;DHT22;53334;51.976;20.144;2024-03-08T04:09:32;26.20;39.50
36652;DHT22;53334;51.976;20.144;2024-03-08T04:12:07;26.20;39.40
36652;DHT22;53334;51.976;20.144;2024-03-08T04:14:42;26.20;39.40
36652;DHT22;53334;51.976;20.144;2024-03-08T04:17:15;26.20;39.50
36652;DHT22;53334;51.976;20.144;2024-03-08T04:19:50;26.20;39.40
36652;DHT22;53334;51.976;20.144;2024-03-08T04:22:23;26.20;39.40
36652;DHT22;53334;51.976;20.144;2024-03-08T04:24:57;26.20;39.30
36652;DHT22;53334;51.976;20.144;2024-03-08T04:27:31;26.20;39.40
36652;DHT22;53334;51.976;20.144;2024-03-08T04:30:07;26.20;39.40
36652;DHT22;53334;51.976;20.144;2024-03-08T04:32:41;26.20;39.40
36652;DHT22;53334;51.976;20.144;2024-03-08T04:35:14;26.20;39.40
36652;DHT22;53334;51.976;20.144;2024-03-08T04:37:47;26.20;39.70
36652;DHT22;53334;51.976;20.144;2024-03-08T04:40:22;26.20;39.40
36652;DHT22;53334;51.976;20.144;2024-03-08T04:42:55;26.20;39.40
36652;DHT22;53334;51.976;20.144;2024-03-08T04:45:28;26.20;39.40
36652;DHT22;53334;51.976;20.144;2024-03-08T04:48:01;26.20;39.30
36652;DHT22;53334;51.976;20.144;2024-03-08T04:50:34;26.20;39.30
36652;DHT22;53334;51.976;20.144;2024-03-08T04:53:07;26.20;39.30
36652;DHT22;53334;51.976;20.144;2024-03-08T04:55:41;26.20;39.30
36652;DHT22;53334;51.976;20.144;2024-03-08T04:58:15;26.20;39.30
36652;DHT22;53334;51.976;20.144;2024-03-08T05:00:48;26.20;39.30
36652;DHT22;53334;51.976;20.144;2024-03-08T05:03:22;26.20;39.20
36652;DHT22;53334;51.976;20.144;2024-03-08T05:05:58;26.20;39.30
36652;DHT22;53334;51.976;20.144;2024-03-08T05:08:31;26.20;39.20
36652;DHT22;53334;51.976;20.144;2024-03-08T05:11:06;26.20;39.20
36652;DHT22;53334;51.976;20.144;2024-03-08T05:13:39;26.20;39.10
36652;DHT22;53334;51.976;20.144;2024-03-08T05:16:12;26.20;39.10
36652;DHT22;53334;51.976;20.144;2024-03-08T05:18:47;26.20;39.10
36652;DHT22;53334;51.976;20.144;2024-03-08T05:21:20;26.20;39.10
36652;DHT22;53334;51.976;20.144;2024-03-08T05:23:53;26.20;39.10
36652;DHT22;53334;51.976;20.144;2024-03-08T05:26:28;26.20;39.10
36652;DHT22;53334;51.976;20.144;2024-03-08T05:29:02;26.20;39.10
36652;DHT22;53334;51.976;20.144;2024-03-08T05:31:42;26.20;39.10
36652;DHT22;53334;51.976;20.144;2024-03-08T05:34:16;26.20;39.10
36652;DHT22;53334;51.976;20.144;2024-03-08T05:36:49;26.20;39.10
36652;DHT22;53334;51.976;20.144;2024-03-08T05:39:23;26.20;39.20
36652;DHT22;53334;51.976;20.144;2024-03-08T05:41:57;26.20;39.50
36652;DHT22;53334;51.976;20.144;2024-03-08T05:44:30;26.20;39.20
36652;DHT22;53334;51.976;20.144;2024-03-08T05:47:03;26.20;39.10
36652;DHT22;53334;51.976;20.144;2024-03-08T05:49:38;26.20;39.10
36652;DHT22;53334;51.976;20.144;2024-03-08T05:52:11;26.20;39.10
36652;DHT22;53334;51.976;20.144;2024-03-08T05:54:44;26.20;39.10
36652;DHT22;53334;51.976;20.144;2024-03-08T05:57:20;26.20;39.00
36652;DHT22;53334;51.976;20.144;2024-03-08T05:59:55;26.20;39.00
36652;DHT22;53334;51.976;20.144;2024-03-08T06:02:28;26.20;39.10
36652;DHT22;53334;51.976;20.144;2024-03-08T06:05:01;26.20;39.00
36652;DHT22;53334;51.976;20.144;2024-03-08T06:07:34;26.20;39.10
36652;DHT22;53334;51.976;20.144;2024-03-08T06:10:08;26.10;39.40
36652;DHT22;53334;51.976;20.144;2024-03-08T06:12:45;26.10;39.00
36652;DHT22;53334;51.976;20.144;2024-03-08T06:15:18;26.20;39.10
36652;DHT22;53334;51.976;20.144;2024-03-08T06:17:52;26.10;38.90
36652;DHT22;53334;51.976;20.144;2024-03-08T06:20:26;26.20;39.10
36652;DHT22;53334;51.976;20.144;2024-03-08T06:22:59;26.10;39.00
36652;DHT22;53334;51.976;20.144;2024-03-08T06:25:33;26.10;39.00
36652;DHT22;53334;51.976;20.144;2024-03-08T06:28:08;26.10;38.90
36652;DHT22;53334;51.976;20.144;2024-03-08T06:30:41;26.20;39.00
36652;DHT22;53334;51.976;20.144;2024-03-08T06:33:14;26.20;39.00
36652;DHT22;53334;51.976;20.144;2024-03-08T06:35:48;26.10;39.30
36652;DHT22;53334;51.976;20.144;2024-03-08T06:38:21;26.10;39.00
36652;DHT22;53334;51.976;20.144;2024-03-08T06:40:54;26.10;38.90
36652;DHT22;53334;51.976;20.144;2024-03-08T06:43:29;26.10;38.90
36652;DHT22;53334;51.976;20.144;2024-03-08T06:46:05;26.20;39.00
36652;DHT22;53334;51.976;20.144;2024-03-08T06:48:38;26.20;39.00
36652;DHT22;53334;51.976;20.144;2024-03-08T06:51:12;26.20;39.00
36652;DHT22;53334;51.976;20.144;2024-03-08T06:53:46;26.20;39.10
36652;DHT22;53334;51.976;20.144;2024-03-08T06:56:21;26.20;39.10
36652;DHT22;53334;51.976;20.144;2024-03-08T06:58:56;26.20;39.10
36652;DHT22;53334;51.976;20.144;2024-03-08T07:01:29;26.10;39.30
36652;DHT22;53334;51.976;20.144;2024-03-08T07:04:04;26.20;39.30
36652;DHT22;53334;51.976;20.144;2024-03-08T07:06:38;26.20;39.30
36652;DHT22;53334;51.976;20.144;2024-03-08T07:09:12;26.10;39.30
36652;DHT22;53334;51.976;20.144;2024-03-08T07:11:48;26.20;39.60
36652;DHT22;53334;51.976;20.144;2024-03-08T07:14:28;26.20;40.20
36652;DHT22;53334;51.976;20.144;2024-03-08T07:17:02;26.20;40.60
36652;DHT22;53334;51.976;20.144;2024-03-08T07:19:38;26.20;40.70
36652;DHT22;53334;51.976;20.144;2024-03-08T07:22:11;26.20;40.90
36652;DHT22;53334;51.976;20.144;2024-03-08T07:24:44;26.20;40.80
36652;DHT22;53334;51.976;20.144;2024-03-08T07:27:36;26.20;40.70
36652;DHT22;53334;51.976;20.144;2024-03-08T07:30:11;26.20;40.60
36652;DHT22;53334;51.976;20.144;2024-03-08T07:33:05;26.20;40.50
36652;DHT22;53334;51.976;20.144;2024-03-08T07:35:39;26.20;40.60
36652;DHT22;53334;51.976;20.144;2024-03-08T07:38:14;26.20;40.80
36652;DHT22;53334;51.976;20.144;2024-03-08T07:40:48;26.20;40.90
36652;DHT22;53334;51.976;20.144;2024-03-08T07:43:21;26.20;40.50
36652;DHT22;53334;51.976;20.144;2024-03-08T07:45:56;26.20;40.60
36652;DHT22;53334;51.976;20.144;2024-03-08T07:48:29;26.20;40.40
36652;DHT22;53334;51.976;20.144;2024-03-08T07:51:02;26.20;40.30
36652;DHT22;53334;51.976;20.144;2024-03-08T07:53:36;26.20;40.00
36652;DHT22;53334;51.976;20.144;2024-03-08T07:56:10;26.20;39.90
36652;DHT22;53334;51.976;20.144;2024-03-08T07:58:45;26.20;39.70
36652;DHT22;53334;51.976;20.144;2024-03-08T08:01:19;26.20;39.60
36652;DHT22;53334;51.976;20.144;2024-03-08T08:03:53;26.20;39.40
36652;DHT22;53334;51.976;20.144;2024-03-08T08:06:26;26.20;39.20
36652;DHT22;53334;51.976;20.144;2024-03-08T08:08:59;26.20;39.10
36652;DHT22;53334;51.976;20.144;2024-03-08T08:11:32;26.20;38.90
36652;DHT22;53334;51.976;20.144;2024-03-08T08:14:05;26.20;38.70
36652;DHT22;53334;51.976;20.144;2024-03-08T08:16:42;26.20;38.50
36652;DHT22;53334;51.976;20.144;2024-03-08T08:19:17;26.20;38.30
36652;DHT22;53334;51.976;20.144;2024-03-08T08:21:50;26.20;38.10
36652;DHT22;53334;51.976;20.144;2024-03-08T08:24:23;26.30;38.10
36652;DHT22;53334;51.976;20.144;2024-03-08T08:26:57;26.30;37.90
36652;DHT22;53334;51.976;20.144;2024-03-08T08:29:31;26.30;37.90
36652;DHT22;53334;51.976;20.144;2024-03-08T08:32:06;26.30;38.10
36652;DHT22;53334;51.976;20.144;2024-03-08T08:34:39;26.30;38.20
36652;DHT22;53334;51.976;20.144;2024-03-08T08:37:14;26.30;38.60
36652;DHT22;53334;51.976;20.144;2024-03-08T08:39:50;26.30;38.90
36652;DHT22;53334;51.976;20.144;2024-03-08T08:42:24;26.30;39.00
36652;DHT22;53334;51.976;20.144;2024-03-08T08:44:57;26.40;39.20
36652;DHT22;53334;51.976;20.144;2024-03-08T08:47:41;26.40;39.30
36652;DHT22;53334;51.976;20.144;2024-03-08T08:50:15;26.40;39.90
36652;DHT22;53334;51.976;20.144;2024-03-08T08:52:55;26.40;39.30
36652;DHT22;53334;51.976;20.144;2024-03-08T08:55:28;26.40;39.20
36652;DHT22;53334;51.976;20.144;2024-03-08T08:58:03;26.40;39.10
36652;DHT22;53334;51.976;20.144;2024-03-08T09:00:36;26.40;39.00
36652;DHT22;53334;51.976;20.144;2024-03-08T09:03:10;26.40;39.00
36652;DHT22;53334;51.976;20.144;2024-03-08T09:05:44;26.40;39.00
36652;DHT22;53334;51.976;20.144;2024-03-08T09:08:17;26.40;38.80
36652;DHT22;53334;51.976;20.144;2024-03-08T09:10:50;26.40;38.70
36652;DHT22;53334;51.976;20.144;2024-03-08T09:13:24;26.40;38.50
36652;DHT22;53334;51.976;20.144;2024-03-08T09:16:04;26.40;38.20
36652;DHT22;53334;51.976;20.144;2024-03-08T09:18:40;26.50;37.50
36652;DHT22;53334;51.976;20.144;2024-03-08T09:21:14;26.50;31.10
36652;DHT22;53334;51.976;20.144;2024-03-08T09:23:47;26.40;28.00
36652;DHT22;53334;51.976;20.144;2024-03-08T09:26:20;26.30;26.60
36652;DHT22;53334;51.976;20.144;2024-03-08T09:29:00;26.30;26.10
36652;DHT22;53334;51.976;20.144;2024-03-08T09:31:33;26.30;26.50
36652;DHT22;53334;51.976;20.144;2024-03-08T09:34:08;26.20;27.30
36652;DHT22;53334;51.976;20.144;2024-03-08T09:36:48;26.20;27.70
36652;DHT22;53334;51.976;20.144;2024-03-08T09:39:22;26.20;28.10
36652;DHT22;53334;51.976;20.144;2024-03-08T09:41:59;26.20;28.40
36652;DHT22;53334;51.976;20.144;2024-03-08T09:44:32;26.20;28.70
36652;DHT22;53334;51.976;20.144;2024-03-08T09:47:07;26.20;29.10
36652;DHT22;53334;51.976;20.144;2024-03-08T09:49:44;26.30;29.60
36652;DHT22;53334;51.976;20.144;2024-03-08T09:52:18;26.30;30.60
36652;DHT22;53334;51.976;20.144;2024-03-08T09:54:51;26.30;30.20
36652;DHT22;53334;51.976;20.144;2024-03-08T09:57:25;26.30;30.60
36652;DHT22;53334;51.976;20.144;2024-03-08T09:59:58;26.30;30.90
36652;DHT22;53334;51.976;20.144;2024-03-08T10:02:31;26.30;31.30
36652;DHT22;53334;51.976;20.144;2024-03-08T10:05:08;26.30;31.50
36652;DHT22;53334;51.976;20.144;2024-03-08T10:07:42;26.40;32.00
36652;DHT22;53334;51.976;20.144;2024-03-08T10:10:15;26.40;32.40
36652;DHT22;53334;51.976;20.144;2024-03-08T10:12:48;26.40;32.30
36652;DHT22;53334;51.976;20.144;2024-03-08T10:15:21;26.40;32.20
36652;DHT22;53334;51.976;20.144;2024-03-08T10:17:56;26.40;32.30
36652;DHT22;53334;51.976;20.144;2024-03-08T10:20:31;26.40;31.60
36652;DHT22;53334;51.976;20.144;2024-03-08T10:23:06;26.40;33.30
36652;DHT22;53334;51.976;20.144;2024-03-08T10:25:43;26.40;32.50
36652;DHT22;53334;51.976;20.144;2024-03-08T10:28:16;26.40;31.80
36652;DHT22;53334;51.976;20.144;2024-03-08T10:30:49;26.40;31.70
36652;DHT22;53334;51.976;20.144;2024-03-08T10:33:22;26.30;31.60
36652;DHT22;53334;51.976;20.144;2024-03-08T10:35:57;26.40;31.60
36652;DHT22;53334;51.976;20.144;2024-03-08T10:38:31;26.40;31.80
36652;DHT22;53334;51.976;20.144;2024-03-08T10:41:06;26.40;31.90
36652;DHT22;53334;51.976;20.144;2024-03-08T10:43:53;26.40;32.00
36652;DHT22;53334;51.976;20.144;2024-03-08T10:46:39;26.40;31.40
36652;DHT22;53334;51.976;20.144;2024-03-08T10:49:17;26.40;31.80
36652;DHT22;53334;51.976;20.144;2024-03-08T10:51:53;26.40;31.90
36652;DHT22;53334;51.976;20.144;2024-03-08T10:54:26;26.40;32.00
36652;DHT22;53334;51.976;20.144;2024-03-08T10:57:02;26.40;31.90
36652;DHT22;53334;51.976;20.144;2024-03-08T10:59:36;26.40;32.00
36652;DHT22;53334;51.976;20.144;2024-03-08T11:02:10;26.40;32.10
36652;DHT22;53334;51.976;20.144;2024-03-08T11:04:47;26.40;32.10
36652;DHT22;53334;51.976;20.144;2024-03-08T11:07:23;26.40;32.20
36652;DHT22;53334;51.976;20.144;2024-03-08T11:09:59;26.40;32.10
36652;DHT22;53334;51.976;20.144;2024-03-08T11:12:37;26.40;32.00
36652;DHT22;53334;51.976;20.144;2024-03-08T11:15:10;26.40;32.10
36652;DHT22;53334;51.976;20.144;2024-03-08T11:17:48;26.40;33.10
36652;DHT22;53334;51.976;20.144;2024-03-08T11:20:23;26.40;32.30
36652;DHT22;53334;51.976;20.144;2024-03-08T11:23:00;26.40;32.40
36652;DHT22;53334;51.976;20.144;2024-03-08T11:25:37;26.40;32.40
36652;DHT22;53334;51.976;20.144;2024-03-08T11:28:15;26.40;32.20
36652;DHT22;53334;51.976;20.144;2024-03-08T11:31:24;26.40;32.50
36652;DHT22;53334;51.976;20.144;2024-03-08T11:33:58;26.40;33.60
36652;DHT22;53334;51.976;20.144;2024-03-08T11:36:34;26.40;32.90
36652;DHT22;53334;51.976;20.144;2024-03-08T11:39:10;26.40;32.80
36652;DHT22;53334;51.976;20.144;2024-03-08T11:41:46;26.40;33.20
36652;DHT22;53334;51.976;20.144;2024-03-08T11:44:20;26.40;33.50
36652;DHT22;53334;51.976;20.144;2024-03-08T11:46:53;26.30;34.30
36652;DHT22;53334;51.976;20.144;2024-03-08T11:49:27;26.30;33.60
36652;DHT22;53334;51.976;20.144;2024-03-08T11:52:00;26.30;33.80
36652;DHT22;53334;51.976;20.144;2024-03-08T11:54:34;26.30;34.00
36652;DHT22;53334;51.976;20.144;2024-03-08T11:57:08;26.30;34.00
36652;DHT22;53334;51.976;20.144;2024-03-08T11:59:49;26.30;34.00
36652;DHT22;53334;51.976;20.144;2024-03-08T12:02:27;26.30;34.20
36652;DHT22;53334;51.976;20.144;2024-03-08T12:05:02;26.30;34.00
36652;DHT22;53334;51.976;20.144;2024-03-08T12:07:35;26.30;34.00
36652;DHT22;53334;51.976;20.144;2024-03-08T12:10:17;26.30;34.80
36652;DHT22;53334;51.976;20.144;2024-03-08T12:12:52;26.30;34.60
36652;DHT22;53334;51.976;20.144;2024-03-08T12:15:25;26.30;34.30
36652;DHT22;53334;51.976;20.144;2024-03-08T12:17:59;26.30;34.40
36652;DHT22;53334;51.976;20.144;2024-03-08T12:20:33;26.30;34.60
36652;DHT22;53334;51.976;20.144;2024-03-08T12:23:14;26.30;34.40
36652;DHT22;53334;51.976;20.144;2024-03-08T12:25:50;26.30;34.60
36652;DHT22;53334;51.976;20.144;2024-03-08T12:28:23;26.30;34.10
36652;DHT22;53334;51.976;20.144;2024-03-08T12:30:56;26.30;34.40
36652;DHT22;53334;51.976;20.144;2024-03-08T12:33:31;26.30;34.30
36652;DHT22;53334;51.976;20.144;2024-03-08T12:36:05;26.30;34.20
36652;DHT22;53334;51.976;20.144;2024-03-08T12:38:39;26.30;34.20
36652;DHT22;53334;51.976;20.144;2024-03-08T12:41:13;26.30;34.00
36652;DHT22;53334;51.976;20.144;2024-03-08T12:43:47;26.30;34.10
36652;DHT22;53334;51.976;20.144;2024-03-08T12:46:21;26.30;34.00
36652;DHT22;53334;51.976;20.144;2024-03-08T12:48:58;26.30;33.90
36652;DHT22;53334;51.976;20.144;2024-03-08T12:51:31;26.30;33.70
36652;DHT22;53334;51.976;20.144;2024-03-08T12:54:05;26.30;34.00
36652;DHT22;53334;51.976;20.144;2024-03-08T12:56:41;26.30;33.70
36652;DHT22;53334;51.976;20.144;2024-03-08T12:59:14;26.30;33.50
36652;DHT22;53334;51.976;20.144;2024-03-08T13:01:47;26.30;33.70
36652;DHT22;53334;51.976;20.144;2024-03-08T13:04:22;26.30;34.80
36652;DHT22;53334;51.976;20.144;2024-03-08T13:06:57;26.30;33.30
36652;DHT22;53334;51.976;20.144;2024-03-08T13:09:30;26.20;33.20
36652;DHT22;53334;51.976;20.144;2024-03-08T13:12:07;26.20;33.30
36652;DHT22;53334;51.976;20.144;2024-03-08T13:14:40;26.30;33.30
36652;DHT22;53334;51.976;20.144;2024-03-08T13:17:13;26.30;33.50
36652;DHT22;53334;51.976;20.144;2024-03-08T13:19:46;26.30;33.60
36652;DHT22;53334;51.976;20.144;2024-03-08T13:22:20;26.30;33.90
36652;DHT22;53334;51.976;20.144;2024-03-08T13:24:54;26.30;34.60
36652;DHT22;53334;51.976;20.144;2024-03-08T13:27:29;26.30;34.00
36652;DHT22;53334;51.976;20.144;2024-03-08T13:30:03;26.30;34.00
36652;DHT22;53334;51.976;20.144;2024-03-08T13:32:36;26.30;34.10
36652;DHT22;53334;51.976;20.144;2024-03-08T13:35:10;26.30;34.30
36652;DHT22;53334;51.976;20.144;2024-03-08T13:37:45;26.30;34.50
36652;DHT22;53334;51.976;20.144;2024-03-08T13:40:18;26.40;34.90
36652;DHT22;53334;51.976;20.144;2024-03-08T13:42:53;26.40;35.00
36652;DHT22;53334;51.976;20.144;2024-03-08T13:45:26;26.40;35.10
36652;DHT22;53334;51.976;20.144;2024-03-08T13:48:00;26.40;35.10
36652;DHT22;53334;51.976;20.144;2024-03-08T13:50:33;26.40;35.20
36652;DHT22;53334;51.976;20.144;2024-03-08T13:53:06;26.40;35.30
36652;DHT22;53334;51.976;20.144;2024-03-08T13:55:42;26.40;35.50
36652;DHT22;53334;51.976;20.144;2024-03-08T13:58:16;26.40;35.50
36652;DHT22;53334;51.976;20.144;2024-03-08T14:00:50;26.40;35.60
36652;DHT22;53334;51.976;20.144;2024-03-08T14:03:23;26.40;35.70
36652;DHT22;53334;51.976;20.144;2024-03-08T14:05:56;26.40;35.80
36652;DHT22;53334;51.976;20.144;2024-03-08T14:08:30;26.40;35.90
36652;DHT22;53334;51.976;20.144;2024-03-08T14:11:05;26.40;36.00
36652;DHT22;53334;51.976;20.144;2024-03-08T14:13:46;26.40;35.90
36652;DHT22;53334;51.976;20.144;2024-03-08T14:16:19;26.40;36.00
36652;DHT22;53334;51.976;20.144;2024-03-08T14:18:52;26.40;36.10
36652;DHT22;53334;51.976;20.144;2024-03-08T14:21:25;26.40;36.30
36652;DHT22;53334;51.976;20.144;2024-03-08T14:23:58;26.40;36.20
36652;DHT22;53334;51.976;20.144;2024-03-08T14:26:31;26.40;36.30
36652;DHT22;53334;51.976;20.144;2024-03-08T14:29:07;26.40;36.30
36652;DHT22;53334;51.976;20.144;2024-03-08T14:31:41;26.40;36.30
36652;DHT22;53334;51.976;20.144;2024-03-08T14:34:15;26.40;36.30
36652;DHT22;53334;51.976;20.144;2024-03-08T14:36:48;26.40;36.30
36652;DHT22;53334;51.976;20.144;2024-03-08T14:39:21;26.40;36.30
36652;DHT22;53334;51.976;20.144;2024-03-08T14:41:58;26.30;36.30
36652;DHT22;53334;51.976;20.144;2024-03-08T14:44:33;26.30;36.30
36652;DHT22;53334;51.976;20.144;2024-03-08T14:47:06;26.30;36.20
36652;DHT22;53334;51.976;20.144;2024-03-08T14:49:40;26.30;36.10
36652;DHT22;53334;51.976;20.144;2024-03-08T14:52:13;26.30;36.20
36652;DHT22;53334;51.976;20.144;2024-03-08T14:55:00;26.30;36.20
36652;DHT22;53334;51.976;20.144;2024-03-08T14:57:35;26.30;36.20
36652;DHT22;53334;51.976;20.144;2024-03-08T15:00:10;26.30;36.20
36652;DHT22;53334;51.976;20.144;2024-03-08T15:02:48;26.30;36.10
36652;DHT22;53334;51.976;20.144;2024-03-08T15:05:25;26.30;36.30
36652;DHT22;53334;51.976;20.144;2024-03-08T15:07:59;26.30;36.20
36652;DHT22;53334;51.976;20.144;2024-03-08T15:10:33;26.30;36.30
36652;DHT22;53334;51.976;20.144;2024-03-08T15:13:06;26.30;36.40
36652;DHT22;53334;51.976;20.144;2024-03-08T15:15:49;26.30;36.90
36652;DHT22;53334;51.976;20.144;2024-03-08T15:18:27;26.30;35.90
36652;DHT22;53334;51.976;20.144;2024-03-08T15:21:06;26.20;35.20
36652;DHT22;53334;51.976;20.144;2024-03-08T15:23:40;26.20;35.60
36652;DHT22;53334;51.976;20.144;2024-03-08T15:26:18;26.20;35.40
36652;DHT22;53334;51.976;20.144;2024-03-08T15:28:51;26.20;35.60
36652;DHT22;53334;51.976;20.144;2024-03-08T15:31:27;26.20;35.80
36652;DHT22;53334;51.976;20.144;2024-03-08T15:34:01;26.20;36.00
36652;DHT22;53334;51.976;20.144;2024-03-08T15:36:38;26.20;36.20
36652;DHT22;53334;51.976;20.144;2024-03-08T15:39:15;26.20;36.50
36652;DHT22;53334;51.976;20.144;2024-03-08T15:41:48;26.20;36.70
36652;DHT22;53334;51.976;20.144;2024-03-08T15:44:21;26.20;36.90
36652;DHT22;53334;51.976;20.144;2024-03-08T15:46:55;26.30;37.10
36652;DHT22;53334;51.976;20.144;2024-03-08T15:49:28;26.30;37.30
36652;DHT22;53334;51.976;20.144;2024-03-08T15:52:01;26.30;37.60
36652;DHT22;53334;51.976;20.144;2024-03-08T15:54:37;26.20;37.60
36652;DHT22;53334;51.976;20.144;2024-03-08T15:57:11;26.20;37.70
36652;DHT22;53334;51.976;20.144;2024-03-08T15:59:46;26.30;37.80